createdAt,value
2019-03-16T00:03:01.461Z,58.58
2019-03-16T00:06:03.392Z,58.52
2019-03-16T00:09:06.048Z,58.50
2019-03-16T00:12:07.988Z,58.34
2019-03-16T00:15:09.957Z,58.35
2019-03-16T00:18:11.873Z,57.30
2019-03-16T00:21:13.802Z,57.50
2019-03-16T00:24:15.765Z,55.98
2019-03-16T00:27:17.715Z,55.10
2019-03-16T00:30:19.780Z,54.84
2019-03-16T00:33:21.674Z,54.46
2019-03-16T00:36:23.639Z,53.99
2019-03-16T00:39:25.557Z,53.79
2019-03-16T00:42:28.116Z,53.10
2019-03-16T00:45:30.720Z,52.98
2019-03-16T00:48:32.684Z,53.08
2019-03-16T00:51:34.604Z,52.90
2019-03-16T00:54:36.514Z,52.44
2019-03-16T00:57:38.598Z,52.30
2019-03-16T01:00:40.694Z,51.68
2019-03-16T01:03:42.635Z,51.73
2019-03-16T01:06:44.910Z,51.57
2019-03-16T01:09:47.919Z,51.32
2019-03-16T01:12:49.885Z,51.35
2019-03-16T01:15:51.806Z,51.47
2019-03-16T01:18:53.712Z,52.09
2019-03-16T01:21:55.591Z,52.31
2019-03-16T01:24:57.496Z,53.36
2019-03-16T01:27:59.901Z,54.12
2019-03-16T01:31:01.828Z,54.43
2019-03-16T01:34:03.759Z,54.80
2019-03-16T01:37:05.669Z,54.87
2019-03-16T01:40:09.211Z,54.78
2019-03-16T01:43:11.140Z,54.53
2019-03-16T01:46:13.708Z,54.09
2019-03-16T01:49:15.597Z,53.96
2019-03-16T01:52:17.460Z,53.52
2019-03-16T01:55:19.383Z,53.39
2019-03-16T01:58:21.351Z,52.95
2019-03-16T02:01:23.383Z,52.82
2019-03-16T02:04:25.318Z,52.87
2019-03-16T02:07:27.305Z,53.17
2019-03-16T02:10:29.337Z,53.04
2019-03-16T02:13:31.262Z,53.38
2019-03-16T02:16:33.678Z,53.28
2019-03-16T02:19:36.141Z,52.85
2019-03-16T02:22:38.422Z,52.69
2019-03-16T02:25:40.308Z,52.53
2019-03-16T02:28:42.319Z,52.45
2019-03-16T02:31:44.283Z,52.48
2019-03-16T02:34:46.225Z,52.72
2019-03-16T02:37:48.104Z,52.60
2019-03-16T02:40:50.121Z,53.12
2019-03-16T02:43:52.073Z,53.14
2019-03-16T02:46:54.398Z,53.15
2019-03-16T02:49:56.389Z,53.33
2019-03-16T02:52:58.347Z,52.18
2019-03-16T02:56:01.368Z,52.00
2019-03-16T02:59:03.286Z,51.78
2019-03-16T03:02:05.309Z,51.39
2019-03-16T03:05:08.911Z,51.52
2019-03-16T03:08:10.924Z,51.48
2019-03-16T03:11:12.872Z,51.85
2019-03-16T03:14:14.743Z,51.53
2019-03-16T03:17:16.638Z,51.24
2019-03-16T03:20:18.594Z,51.64
2019-03-16T03:23:20.527Z,52.21
2019-03-16T03:26:22.431Z,52.47
2019-03-16T03:29:24.367Z,52.49
2019-03-16T03:32:26.366Z,51.64
2019-03-16T03:35:29.452Z,51.84
2019-03-16T03:38:31.794Z,51.93
2019-03-16T03:41:34.276Z,52.11
2019-03-16T03:44:36.232Z,51.44
2019-03-16T03:47:38.178Z,51.31
2019-03-16T03:50:40.097Z,50.99
2019-03-16T03:53:42.083Z,51.08
2019-03-16T03:56:43.988Z,50.93
2019-03-16T03:59:46.344Z,50.69
2019-03-16T04:02:48.374Z,50.71
2019-03-16T04:05:50.350Z,50.83
2019-03-16T04:08:52.543Z,51.00
2019-03-16T04:11:54.460Z,51.27
2019-03-16T04:14:56.451Z,51.47
2019-03-16T04:17:58.350Z,51.85
2019-03-16T04:21:00.271Z,52.01
2019-03-16T04:24:02.228Z,52.02
2019-03-16T04:27:15.776Z,52.40
2019-03-16T04:30:10.081Z,52.45
2019-03-16T04:33:12.147Z,52.67
2019-03-16T04:36:14.031Z,52.87
2019-03-16T04:39:16.002Z,53.20
2019-03-16T04:42:17.954Z,53.04
2019-03-16T04:45:19.823Z,53.24
2019-03-16T04:48:22.396Z,53.49
2019-03-16T04:51:24.326Z,53.55
2019-03-16T04:54:26.265Z,53.63
2019-03-16T04:57:28.146Z,53.64
2019-03-16T05:00:30.290Z,53.88
2019-03-16T05:03:32.478Z,54.03
2019-03-16T05:06:34.465Z,54.25
2019-03-16T05:09:36.389Z,54.37
2019-03-16T05:12:38.541Z,54.56
2019-03-16T05:15:40.495Z,54.46
2019-03-16T05:18:42.639Z,54.21
2019-03-16T05:21:44.520Z,53.80
2019-03-16T05:24:46.481Z,52.98
2019-03-16T05:27:48.834Z,52.93
2019-03-16T05:30:50.710Z,52.93
2019-03-16T05:33:52.715Z,52.80
2019-03-16T05:36:56.051Z,52.63
2019-03-16T05:39:58.345Z,52.64
2019-03-16T05:43:00.197Z,52.84
2019-03-16T05:46:02.274Z,52.79
2019-03-16T05:49:04.171Z,52.43
2019-03-16T05:52:06.740Z,52.34
2019-03-16T05:55:08.835Z,52.38
2019-03-16T05:58:10.823Z,52.29
2019-03-16T06:01:12.746Z,52.05
2019-03-16T06:04:14.802Z,51.91
2019-03-16T06:07:16.706Z,51.95
2019-03-16T06:10:18.724Z,51.62
2019-03-16T06:13:20.642Z,51.39
2019-03-16T06:16:22.558Z,50.55
2019-03-16T06:19:24.514Z,50.06
2019-03-16T06:22:26.431Z,49.51
2019-03-16T06:25:28.399Z,49.33
2019-03-16T06:28:30.335Z,49.59
2019-03-16T06:31:32.359Z,49.43
2019-03-16T06:34:34.318Z,49.76
2019-03-16T06:37:36.283Z,49.96
2019-03-16T06:40:38.198Z,49.89
2019-03-16T06:43:40.246Z,49.92
2019-03-16T06:46:42.150Z,50.33
2019-03-16T06:49:44.101Z,50.02
2019-03-16T06:52:46.163Z,49.96
2019-03-16T06:55:48.161Z,50.22
2019-03-16T06:58:50.082Z,49.78
2019-03-16T07:01:52.239Z,50.35
2019-03-16T07:04:54.344Z,50.11
2019-03-16T07:07:56.353Z,50.29
2019-03-16T07:10:58.305Z,49.76
2019-03-16T07:14:01.339Z,49.50
2019-03-16T07:17:03.271Z,49.08
2019-03-16T07:20:08.103Z,48.84
2019-03-16T07:23:10.083Z,49.09
2019-03-16T07:26:15.092Z,48.34
2019-03-16T07:29:16.100Z,48.73
2019-03-16T07:32:18.067Z,48.01
2019-03-16T07:35:20.086Z,47.71
2019-03-16T07:38:22.039Z,46.78
2019-03-16T07:41:23.991Z,46.98
2019-03-16T07:44:25.910Z,47.29
2019-03-16T07:47:27.866Z,46.93
2019-03-16T07:50:29.796Z,46.70
2019-03-16T07:53:31.797Z,47.06
2019-03-16T07:56:33.714Z,46.38
2019-03-16T07:59:37.241Z,46.47
2019-03-16T08:02:39.512Z,47.58
2019-03-16T08:05:42.288Z,45.97
2019-03-16T08:08:46.247Z,44.21
2019-03-16T08:11:48.117Z,43.30
2019-03-16T08:14:50.052Z,42.96
2019-03-16T08:17:52.074Z,41.80
2019-03-16T08:20:53.981Z,41.84
2019-03-16T08:23:56.127Z,41.47
2019-03-16T08:26:58.046Z,41.37
2019-03-16T08:30:00.015Z,42.10
2019-03-16T08:33:01.901Z,40.69
2019-03-16T08:36:04.016Z,41.46
2019-03-16T08:39:06.428Z,41.87
2019-03-16T08:42:08.510Z,41.55
2019-03-16T08:45:10.545Z,42.29
2019-03-16T08:48:22.360Z,42.24
2019-03-16T08:51:16.457Z,41.98
2019-03-16T08:54:18.410Z,41.54
2019-03-16T08:57:20.332Z,41.08
2019-03-16T09:00:22.348Z,41.75
2019-03-16T09:03:24.304Z,40.61
2019-03-16T09:06:28.474Z,42.51
2019-03-16T09:09:30.423Z,41.84
2019-03-16T09:12:32.383Z,41.86
2019-03-16T09:15:34.435Z,40.07
2019-03-16T09:18:36.415Z,41.98
2019-03-16T09:21:38.352Z,42.67
2019-03-16T09:24:41.421Z,40.73
2019-03-16T09:27:43.317Z,43.10
2019-03-16T09:30:45.485Z,41.95
2019-03-16T09:33:47.424Z,41.63
2019-03-16T09:36:49.409Z,41.47
2019-03-16T09:39:51.551Z,41.82
2019-03-16T09:42:53.559Z,42.72
2019-03-16T09:45:55.521Z,41.50
2019-03-16T09:48:57.495Z,40.84
2019-03-16T09:51:59.473Z,40.91
2019-03-16T09:55:01.388Z,41.00
2019-03-16T09:58:03.403Z,40.92
2019-03-16T10:01:05.367Z,40.74
2019-03-16T10:04:07.314Z,40.65
2019-03-16T10:07:09.427Z,41.30
2019-03-16T10:10:14.612Z,41.11
2019-03-16T10:13:16.620Z,40.07
2019-03-16T10:16:18.716Z,39.13
2019-03-16T10:19:20.672Z,38.62
2019-03-16T10:22:22.760Z,39.61
2019-03-16T10:25:24.699Z,38.60
2019-03-16T10:28:26.691Z,39.37
2019-03-16T10:31:28.679Z,39.85
2019-03-16T10:34:30.659Z,39.54
2019-03-16T10:37:32.778Z,39.81
2019-03-16T10:40:34.801Z,39.92
2019-03-16T10:43:36.710Z,39.38
2019-03-16T10:46:38.637Z,39.70
2019-03-16T10:49:40.577Z,39.17
2019-03-16T10:52:42.547Z,38.65
2019-03-16T10:55:44.565Z,39.11
2019-03-16T10:58:55.980Z,39.75
2019-03-16T11:01:50.498Z,40.08
2019-03-16T11:04:52.495Z,39.62
2019-03-16T11:07:55.838Z,40.50
2019-03-16T11:10:58.044Z,39.58
2019-03-16T11:14:00.007Z,38.92
2019-03-16T11:17:01.968Z,40.01
2019-03-16T11:20:07.604Z,38.13
2019-03-16T11:23:09.636Z,38.49
2019-03-16T11:26:11.688Z,38.62
2019-03-16T11:29:13.797Z,39.03
2019-03-16T11:32:15.773Z,39.03
2019-03-16T11:35:17.790Z,38.34
2019-03-16T11:38:19.902Z,38.64
2019-03-16T11:41:21.877Z,37.95
2019-03-16T11:44:23.858Z,38.82
2019-03-16T11:47:25.869Z,39.09
2019-03-16T11:50:27.832Z,38.38
2019-03-16T11:53:30.018Z,38.24
2019-03-16T11:56:32.003Z,37.88
2019-03-16T11:59:33.961Z,38.78
2019-03-16T12:02:35.859Z,38.54
2019-03-16T12:05:37.801Z,39.27
2019-03-16T12:08:39.950Z,38.48
2019-03-16T12:11:41.944Z,38.47
2019-03-16T12:14:43.874Z,38.57
2019-03-16T12:17:46.079Z,38.66
2019-03-16T12:20:48.003Z,39.19
2019-03-16T12:23:49.960Z,38.29
2019-03-16T12:26:51.925Z,38.24
2019-03-16T12:29:53.877Z,38.54
2019-03-16T12:32:55.836Z,38.64
2019-03-16T12:35:58.000Z,38.75
2019-03-16T12:39:00.036Z,38.95
2019-03-16T12:42:02.029Z,38.99
2019-03-16T12:45:10.485Z,39.35
2019-03-16T12:48:12.372Z,38.65
2019-03-16T12:51:14.305Z,39.27
2019-03-16T12:54:16.238Z,38.51
2019-03-16T12:57:18.212Z,39.77
2019-03-16T13:00:20.222Z,38.98
2019-03-16T13:03:22.283Z,37.22
2019-03-16T13:06:25.511Z,37.94
2019-03-16T13:09:30.486Z,37.52
2019-03-16T13:12:32.452Z,37.38
2019-03-16T13:15:34.365Z,36.36
2019-03-16T13:18:36.910Z,36.67
2019-03-16T13:21:38.989Z,36.42
2019-03-16T13:24:41.003Z,36.74
2019-03-16T13:27:42.949Z,36.29
2019-03-16T13:30:44.942Z,36.25
2019-03-16T13:33:47.023Z,36.64
2019-03-16T13:36:49.047Z,36.54
2019-03-16T13:39:51.169Z,36.73
2019-03-16T13:42:53.238Z,36.46
2019-03-16T13:45:55.199Z,35.80
2019-03-16T13:48:57.154Z,36.24
2019-03-16T13:51:59.084Z,36.99
2019-03-16T13:55:01.466Z,36.24
2019-03-16T13:58:04.946Z,35.95
2019-03-16T14:01:07.012Z,36.43
2019-03-16T14:04:08.985Z,36.76
2019-03-16T14:07:12.274Z,36.78
2019-03-16T14:10:19.192Z,36.59
2019-03-16T14:13:21.158Z,36.52
2019-03-16T14:16:23.149Z,37.24
2019-03-16T14:19:25.472Z,37.19
2019-03-16T14:22:28.592Z,37.94
2019-03-16T14:25:30.584Z,38.43
2019-03-16T14:28:33.076Z,39.44
2019-03-16T14:31:35.296Z,40.15
2019-03-16T14:34:37.253Z,40.11
2019-03-16T14:37:39.563Z,41.32
2019-03-16T14:40:41.641Z,41.60
2019-03-16T14:43:43.555Z,41.37
2019-03-16T14:46:45.519Z,40.83
2019-03-16T14:49:47.473Z,41.20
2019-03-16T14:52:49.395Z,41.06
2019-03-16T14:55:51.318Z,41.43
2019-03-16T14:58:53.315Z,41.07
2019-03-16T15:01:55.329Z,41.34
2019-03-16T15:04:57.232Z,41.43
2019-03-16T15:07:59.162Z,41.69
2019-03-16T15:11:01.276Z,41.89
2019-03-16T15:14:03.522Z,41.90
2019-03-16T15:17:05.435Z,42.18
2019-03-16T15:20:09.692Z,42.31
2019-03-16T15:23:11.673Z,42.61
2019-03-16T15:26:13.728Z,43.00
2019-03-16T15:29:15.670Z,43.45
2019-03-16T15:32:17.703Z,43.69
2019-03-16T15:35:19.654Z,44.55
2019-03-16T15:38:22.176Z,44.41
2019-03-16T15:41:24.172Z,45.32
2019-03-16T15:44:26.104Z,46.82
2019-03-16T15:47:29.999Z,47.12
2019-03-16T15:50:31.932Z,47.00
2019-03-16T15:53:33.956Z,47.61
2019-03-16T15:56:35.980Z,48.85
2019-03-16T15:59:39.717Z,48.39
2019-03-16T16:02:41.758Z,49.74
2019-03-16T16:05:43.761Z,49.87
2019-03-16T16:08:45.855Z,53.93
2019-03-16T16:11:48.071Z,54.22
2019-03-16T16:14:50.078Z,55.75
2019-03-16T16:17:52.094Z,57.00
2019-03-16T16:20:54.157Z,56.88
2019-03-16T16:23:56.088Z,57.42
2019-03-16T16:26:57.997Z,57.75
2019-03-16T16:30:03.867Z,58.69
2019-03-16T16:33:06.324Z,58.67
2019-03-16T16:36:08.683Z,58.86
2019-03-16T16:39:14.495Z,59.78
2019-03-16T16:42:16.853Z,60.51
2019-03-16T16:45:18.867Z,60.42
2019-03-16T16:48:21.419Z,60.43
2019-03-16T16:51:23.417Z,61.19
2019-03-16T16:54:25.379Z,60.64
2019-03-16T16:57:27.297Z,61.15
2019-03-16T17:00:29.274Z,60.87
2019-03-16T17:03:31.261Z,61.25
2019-03-16T17:06:33.198Z,60.84
2019-03-16T17:09:35.397Z,60.73
2019-03-16T17:12:37.574Z,61.05
2019-03-16T17:15:39.484Z,60.82
2019-03-16T17:18:42.491Z,61.95
2019-03-16T17:21:44.784Z,60.81
2019-03-16T17:24:46.747Z,61.57
2019-03-16T17:27:48.709Z,61.28
2019-03-16T17:30:51.822Z,61.36
2019-03-16T17:33:54.864Z,61.11
2019-03-16T17:36:56.748Z,60.84
2019-03-16T17:40:00.512Z,60.88
2019-03-16T17:43:02.532Z,61.46
2019-03-16T17:46:04.470Z,61.01
2019-03-16T17:49:06.412Z,61.14
2019-03-16T17:52:08.397Z,61.33
2019-03-16T17:55:12.889Z,61.41
2019-03-16T17:58:14.881Z,61.62
2019-03-16T18:01:16.951Z,61.96
2019-03-16T18:04:19.452Z,62.66
2019-03-16T18:07:21.525Z,63.00
2019-03-16T18:10:23.487Z,63.74
2019-03-16T18:13:27.480Z,64.48
2019-03-16T18:16:29.445Z,64.63
2019-03-16T18:19:31.505Z,64.44
2019-03-16T18:22:33.974Z,64.84
2019-03-16T18:25:37.743Z,64.29
2019-03-16T18:28:40.130Z,64.01
2019-03-16T18:31:42.105Z,64.00
2019-03-16T18:34:44.143Z,64.02
2019-03-16T18:37:46.078Z,64.20
2019-03-16T18:40:48.041Z,64.17
2019-03-16T18:43:50.128Z,64.37
2019-03-16T18:46:52.269Z,65.25
2019-03-16T18:49:54.593Z,65.46
2019-03-16T18:52:56.593Z,65.54
2019-03-16T18:56:01.297Z,66.01
2019-03-16T18:59:03.301Z,66.16
2019-03-16T19:02:05.297Z,66.29
2019-03-16T19:05:11.019Z,66.53
2019-03-16T19:08:13.062Z,66.97
2019-03-16T19:11:15.323Z,67.24
2019-03-16T19:14:18.220Z,67.39
2019-03-16T19:17:21.930Z,67.98
2019-03-16T19:20:26.996Z,67.65
2019-03-16T19:23:32.722Z,67.83
2019-03-16T19:26:34.682Z,67.75
2019-03-16T19:29:38.588Z,67.85
2019-03-16T19:32:43.124Z,67.33
2019-03-16T19:35:45.660Z,67.38
2019-03-16T19:38:47.972Z,67.73
2019-03-16T19:41:52.451Z,67.48
2019-03-16T19:44:57.053Z,67.68
2019-03-16T19:48:01.822Z,67.66
2019-03-16T19:51:04.404Z,67.73
2019-03-16T19:54:06.733Z,67.13
2019-03-16T19:57:15.871Z,66.68
2019-03-16T20:00:14.358Z,66.36
2019-03-16T20:03:16.267Z,66.14
2019-03-16T20:06:25.778Z,65.78
2019-03-16T20:09:24.701Z,65.52
2019-03-16T20:12:30.711Z,65.49
2019-03-16T20:15:32.873Z,65.37
2019-03-16T20:18:36.515Z,65.52
2019-03-16T20:21:40.104Z,65.51
2019-03-16T20:24:43.823Z,65.43
2019-03-16T20:27:45.992Z,65.61
2019-03-16T20:30:48.106Z,65.43
2019-03-16T20:33:51.960Z,65.45
2019-03-16T20:36:53.905Z,65.30
2019-03-16T20:39:55.984Z,65.48
2019-03-16T20:42:58.117Z,65.43
2019-03-16T20:46:00.576Z,65.52
2019-03-16T20:49:02.560Z,65.60
2019-03-16T20:52:04.588Z,65.73
2019-03-16T20:55:07.947Z,65.84
2019-03-16T20:58:09.948Z,65.87
2019-03-16T21:01:12.027Z,65.80
2019-03-16T21:04:14.093Z,66.10
2019-03-16T21:07:16.603Z,65.94
2019-03-16T21:10:18.839Z,65.89
2019-03-16T21:13:25.032Z,66.14
2019-03-16T21:16:27.111Z,66.12
2019-03-16T21:19:29.595Z,66.22
2019-03-16T21:22:38.543Z,66.30
2019-03-16T21:25:37.000Z,66.17
2019-03-16T21:28:39.505Z,66.10
2019-03-16T21:31:41.441Z,65.92
2019-03-16T21:34:43.548Z,65.78
2019-03-16T21:37:45.627Z,65.85
2019-03-16T21:40:48.849Z,65.87
2019-03-16T21:43:50.827Z,65.86
2019-03-16T21:46:53.906Z,65.97
2019-03-16T21:49:56.794Z,65.99
2019-03-16T21:52:58.787Z,66.10
2019-03-16T21:56:00.791Z,66.10
2019-03-16T21:59:02.737Z,66.17
2019-03-16T22:02:06.349Z,66.20
2019-03-16T22:05:08.942Z,66.58
2019-03-16T22:08:11.542Z,66.80
2019-03-16T22:11:13.519Z,66.68
2019-03-16T22:14:15.513Z,66.42
2019-03-16T22:17:17.581Z,66.57
2019-03-16T22:20:20.433Z,66.45
2019-03-16T22:23:22.490Z,66.38
2019-03-16T22:26:24.426Z,66.31
2019-03-16T22:29:26.309Z,65.95
2019-03-16T22:32:28.270Z,65.77
2019-03-16T22:35:30.270Z,65.83
2019-03-16T22:38:32.260Z,65.86
2019-03-16T22:41:34.196Z,65.79
2019-03-16T22:44:36.115Z,65.74
2019-03-16T22:47:38.116Z,65.61
2019-03-16T22:50:40.141Z,65.72
2019-03-16T22:53:42.087Z,65.76
2019-03-16T22:56:44.013Z,65.67
2019-03-16T22:59:46.000Z,65.64
2019-03-16T23:02:47.958Z,65.62
2019-03-16T23:05:49.879Z,65.51
2019-03-16T23:08:51.872Z,65.34
2019-03-16T23:11:53.833Z,65.49
2019-03-16T23:15:09.614Z,65.30
2019-03-16T23:18:11.667Z,65.18
2019-03-16T23:21:13.708Z,64.78
2019-03-16T23:24:15.707Z,64.64
2019-03-16T23:27:17.660Z,64.50
2019-03-16T23:30:19.570Z,64.42
2019-03-16T23:33:21.622Z,64.46
2019-03-16T23:36:24.763Z,64.54
2019-03-16T23:39:27.521Z,64.58
2019-03-16T23:42:29.426Z,64.51
2019-03-16T23:45:31.446Z,64.60
2019-03-16T23:48:33.524Z,64.72
2019-03-16T23:51:35.627Z,64.64
2019-03-16T23:54:37.632Z,64.77
2019-03-16T23:57:39.873Z,64.70
